Airfield :
LOGIN :

Register | Disclaimer

   EN    FR    IT 

 










Legend :    VFR   Marginal VFR   IFR   Intensive IFR   Very Intensive IFR
Visi :
Ceiling :
>= 8 km
>= 3000ft
5 to 8 km
1000 to 3000 ft
1500m to 5 km
500 to 1000 ft
800 to 1500m
200 to 500 ft
< 800m
< 200 ft
Symbols :   Thunderstorms  Fog  Heavy snow  Heavy precipitations  Wind > 20 kt
SIGMETs :     Misc.  Thunderstorms  Icing  Turbulence  Mountain Waves  Volcanic Ashes






- Airport Elevation : 1906 ft
- IATA code : INN


LOWI - Innsbruck

CURRENT METAR :
  • 070950Z VRB02KT 9999 FEW040 SCT060 BKN090 15/06 Q1008 TEMPO FM1030 27020G35KT SHRA

EXPIRED METARs :
  • 070920Z 03005KT 360V080 9999 FEW040 SCT060 BKN100 14/06 Q1008 TEMPO FM1015 27020G35KT SHRA
  • 070850Z VRB02KT 9999 FEW040 SCT100 14/06 Q1009 BECMG 08007KT TEMPO FM1030 27020G35KT SHRA
  • 070820Z VRB02KT 9999 FEW035 SCT060 13/07 Q1009 TEMPO FM1000 27020G35KT SHRA
  • 070750Z VRB02KT 9999 FEW025 SCT060 BKN100 12/07 Q1009 NOSIG
  • 070720Z VRB02KT 9999 FEW015 SCT060 11/07 Q1009 NOSIG
  • 070650Z 32003KT 290V030 9999 FEW011 SCT060 10/08 Q1009 NOSIG

TAF TAF LOWI
Valid from the 07 at 06:00 until the 08 at 06:00 UTC


070515Z 0706/0806 08004KT 9999 FEW015 SCT030 BKN060 TX12/0710Z TN03/0804Z
TEMPO 0706/0709 -SHRA
BECMG 0708/0710 08008KT
TEMPO 0709/0715 27020G35KT SHRA
PROB30
TEMPO 0709/0713 FEW050CB BKN060
TEMPO 0715/0719 -SHRA
BECMG 0719/0721 27003KT



MET'MAP, your aeronautical weather chart ! - Copyright ORBIFLY December 2007 - Disclaimer

ORBIFLY MET'MAP TEAM :

Programming & Development : Alexandra Zaïnal
Concept & original design : Baudouin d'Aumeries
Assistance for programming : Marc-Olivier Méhu
Technical & hardware support : Manuel Goepfert

Contact : metmap@orbifly.com




SOURCES & CREDITS :

   NOAA